Time;durP1;ratioP1;P1;durP2;ratioP2;P2;SDS_P1;SDS_P2;PMS_P1;PMS_P2;Temp;Humidity;BMP_temperature;BMP_pressure;BME280_temperature;BME280_humidity;BME280_pressure;Samples;Min_cycle;Max_cycle;Signal;HPM_P1;HPM_P2
2023/06/09 00:01:14;;;;;;;;;;;;;;;;;;5082724;28;19928;-81
2023/06/09 00:03:45;;;;;;;;;;;;;;;;;;5097220;28;19951;-81
2023/06/09 00:06:13;;;;;;;;;;;;;;;;;;5084025;28;19925;-81
2023/06/09 00:08:41;;;;;;;;;;;;;;;;;;5079269;28;19925;-81
2023/06/09 00:11:15;;;;;;;;;;;;;;;;;;5070410;28;19932;-81
2023/06/09 00:13:42;;;;;;;;;;;;;;;;;;5097291;28;19932;-81
2023/06/09 00:16:12;;;;;;;;;;;;;;;;;;5071596;28;19928;-81
2023/06/09 00:18:45;;;;;;;;;;;;;;;;;;5080442;28;19928;-81
2023/06/09 00:21:17;;;;;;;;;;;;;;;;;;5064876;28;19931;-81
2023/06/09 00:23:48;;;;;;;;;;;;;;;;;;5080610;28;20299;-81
2023/06/09 00:26:15;;;;;;;;;;;;;;;;;;5072664;28;19950;-81
2023/06/09 00:28:43;;;;;;;;;;;;;;;;;;5079920;28;19932;-81
2023/06/09 00:31:10;;;;;;;;;;;;;;;;;;5078505;28;19935;-81
2023/06/09 00:33:37;;;;;;;;;;;;;;;;;;5081389;28;20019;-81
2023/06/09 00:36:08;;;;;;;;;;;;;;;;;;5061853;28;19925;-81
2023/06/09 00:38:35;;;;;;;;;;;;;;;;;;5074221;28;19936;-81
2023/06/09 00:41:03;;;;;;;;;;;;;;;;;;5078654;28;19924;-81
2023/06/09 00:43:30;;;;;;;;;;;;;;;;;;5074547;28;19928;-81
2023/06/09 00:45:57;;;;;;;;;;;;;;;;;;5079356;28;19931;-81
2023/06/09 00:48:27;;;;;;;;;;;;;;;;;;5060688;28;19929;-81
2023/06/09 00:50:55;;;;;;;;;;;;;;;;;;5079761;28;20165;-81
2023/06/09 00:53:24;;;;;;;;;;;;;;;;;;5080742;28;19928;-81
2023/06/09 00:55:57;;;;;;;;;;;;;;;;;;5079559;28;19929;-81
2023/06/09 00:58:25;;;;;;;;;;;;;;;;;;5078867;28;19932;-81
2023/06/09 01:00:57;;;;;;;;;;;;;;;;;;5075406;28;19936;-81
2023/06/09 01:03:26;;;;;;;;;;;;;;;;;;5057751;28;19928;-81
2023/06/09 01:05:54;;;;;;;;;;;;;;;;;;5071615;28;19943;-81
2023/06/09 01:08:23;;;;;;;;;;;;;;;;;;5085000;28;19925;-81
2023/06/09 01:10:52;;;;;;;;;;;;;;;;;;5061640;28;19929;-81
2023/06/09 01:13:22;;;;;;;;;;;;;;;;;;5093802;28;19932;-81
2023/06/09 01:15:54;;;;;;;;;;;;;;;;;;5081638;28;20387;-81
2023/06/09 01:18:25;;;;;;;;;;;;;;;;;;5059840;28;19925;-81
2023/06/09 01:21:00;;;;;;;;;;;;;;;;;;5093201;28;20387;-81
2023/06/09 01:23:31;;;;;;;;;;;;;;;;;;5072511;28;19932;-81
2023/06/09 01:26:00;;;;;;;;;;;;;;;;;;5076648;28;19947;-81
2023/06/09 01:28:28;;;;;;;;;;;;;;;;;;5087484;28;19925;-81
2023/06/09 01:30:55;;;;;;;;;;;;;;;;;;5073935;28;20324;-81
2023/06/09 01:33:24;;;;;;;;;;;;;;;;;;5071465;28;20378;-81
2023/06/09 01:35:51;;;;;;;;;;;;;;;;;;5078931;28;19924;-81
2023/06/09 01:38:22;;;;;;;;;;;;;;;;;;5079722;28;20395;-81
2023/06/09 01:40:49;;;;;;;;;;;;;;;;;;5077250;28;19926;-81
2023/06/09 01:43:20;;;;;;;;;;;;;;;;;;5066428;28;19924;-81
2023/06/09 01:45:47;;;;;;;;;;;;;;;;;;5086836;28;19925;-81
2023/06/09 01:48:18;;;;;;;;;;;;;;;;;;5069980;28;19925;-81
2023/06/09 01:50:47;;;;;;;;;;;;;;;;;;5087486;28;19935;-81
2023/06/09 01:53:18;;;;;;;;;;;;;;;;;;5089864;28;19924;-81
2023/06/09 01:55:46;;;;;;;;;;;;;;;;;;5103448;22;19917;-94
2023/06/09 01:58:14;;;;;;;;;;;;;;;;;;5111800;28;19912;-94
2023/06/09 02:00:43;;;;;;;;;;;;;;;;;;5096241;28;20258;-93
2023/06/09 02:03:11;;;;;;;;;;;;;;;;;;5088266;28;19930;-94
2023/06/09 02:05:41;;;;;;;;;;;;;;;;;;5119592;27;19939;-93
2023/06/09 02:08:08;;;;;;;;;;;;;;;;;;5107554;28;19908;-93
2023/06/09 02:10:36;;;;;;;;;;;;;;;;;;5080835;28;19912;-94
2023/06/09 02:13:11;;;;;;;;;;;;;;;;;;5087196;28;19954;-94
2023/06/09 02:15:39;;;;;;;;;;;;;;;;;;5098424;28;19915;-94
2023/06/09 02:18:11;;;;;;;;;;;;;;;;;;5079812;28;19925;-94
2023/06/09 02:20:42;;;;;;;;;;;;;;;;;;5119995;28;19920;-94
2023/06/09 02:23:11;;;;;;;;;;;;;;;;;;5096737;28;19912;-94
2023/06/09 02:25:38;;;;;;;;;;;;;;;;;;5096583;28;19915;-93
2023/06/09 02:28:06;;;;;;;;;;;;;;;;;;5121328;28;19932;-94
2023/06/09 02:30:33;;;;;;;;;;;;;;;;;;5129143;28;19917;-94
2023/06/09 02:33:01;;;;;;;;;;;;;;;;;;5089634;28;19912;-94
2023/06/09 02:35:30;;;;;;;;;;;;;;;;;;5102600;28;19915;-94
2023/06/09 02:37:58;;;;;;;;;;;;;;;;;;5130426;28;19912;-93
2023/06/09 02:40:29;;;;;;;;;;;;;;;;;;5077289;28;19938;-94
2023/06/09 02:42:57;;;;;;;;;;;;;;;;;;5146657;27;19914;-93
2023/06/09 02:45:24;;;;;;;;;;;;;;;;;;5097104;28;19918;-94
2023/06/09 02:47:51;;;;;;;;;;;;;;;;;;5096286;28;19923;-94
2023/06/09 02:50:19;;;;;;;;;;;;;;;;;;5119290;28;19913;-92
2023/06/09 02:52:50;;;;;;;;;;;;;;;;;;5078395;28;19912;-94
2023/06/09 02:55:21;;;;;;;;;;;;;;;;;;5078761;28;19923;-93
2023/06/09 02:57:50;;;;;;;;;;;;;;;;;;5103391;28;19952;-93
2023/06/09 03:00:23;;;;;;;;;;;;;;;;;;5076972;28;19920;-93
2023/06/09 03:02:52;;;;;;;;;;;;;;;;;;5096450;28;19912;-94
2023/06/09 03:05:24;;;;;;;;;;;;;;;;;;5088475;28;19913;-93
2023/06/09 03:07:54;;;;;;;;;;;;;;;;;;5097924;28;19908;-93
2023/06/09 03:10:22;;;;;;;;;;;;;;;;;;5120505;28;19909;-94
2023/06/09 03:12:51;;;;;;;;;;;;;;;;;;5083886;28;19934;-93
2023/06/09 03:15:19;;;;;;;;;;;;;;;;;;5079015;28;19912;-94
2023/06/09 03:17:47;;;;;;;;;;;;;;;;;;5121543;28;19929;-94
2023/06/09 03:20:16;;;;;;;;;;;;;;;;;;5069934;28;19912;-93
2023/06/09 03:22:45;;;;;;;;;;;;;;;;;;5078762;28;19932;-94
2023/06/09 03:25:19;;;;;;;;;;;;;;;;;;5080322;28;19925;-94
2023/06/09 03:27:47;;;;;;;;;;;;;;;;;;5101420;28;19912;-94
2023/06/09 03:30:15;;;;;;;;;;;;;;;;;;5101604;28;21195;-95
2023/06/09 03:32:45;;;;;;;;;;;;;;;;;;5099320;28;19939;-94
2023/06/09 03:35:13;;;;;;;;;;;;;;;;;;5080203;28;19923;-94
2023/06/09 03:37:40;;;;;;;;;;;;;;;;;;5112946;28;19912;-94
2023/06/09 03:40:09;;;;;;;;;;;;;;;;;;5080791;28;19924;-94
2023/06/09 03:42:38;;;;;;;;;;;;;;;;;;5094144;28;19924;-94
2023/06/09 03:45:06;;;;;;;;;;;;;;;;;;5120234;28;19912;-95
2023/06/09 03:47:37;;;;;;;;;;;;;;;;;;5089632;28;19913;-93
2023/06/09 03:50:05;;;;;;;;;;;;;;;;;;5109874;28;19912;-94
2023/06/09 03:52:34;;;;;;;;;;;;;;;;;;5101006;28;19940;-93
2023/06/09 03:55:02;;;;;;;;;;;;;;;;;;5098174;28;19934;-94
2023/06/09 03:57:32;;;;;;;;;;;;;;;;;;5111195;28;19932;-93
2023/06/09 04:00:03;;;;;;;;;;;;;;;;;;5082256;28;19912;-94
2023/06/09 04:02:32;;;;;;;;;;;;;;;;;;5086181;28;19933;-91
2023/06/09 04:04:59;;;;;;;;;;;;;;;;;;5108118;28;19924;-92
2023/06/09 04:07:29;;;;;;;;;;;;;;;;;;5077810;28;20312;-92
2023/06/09 04:09:57;;;;;;;;;;;;;;;;;;5089613;28;20397;-91
2023/06/09 04:12:27;;;;;;;;;;;;;;;;;;5077726;28;19932;-91
2023/06/09 04:14:55;;;;;;;;;;;;;;;;;;5079945;28;19959;-91
2023/06/09 04:17:27;;;;;;;;;;;;;;;;;;5073983;28;19933;-91
2023/06/09 04:19:58;;;;;;;;;;;;;;;;;;5092408;28;19931;-89
2023/06/09 04:22:27;;;;;;;;;;;;;;;;;;5065034;28;19931;-92
2023/06/09 04:25:01;;;;;;;;;;;;;;;;;;5073164;28;19924;-91
2023/06/09 04:27:30;;;;;;;;;;;;;;;;;;5080109;28;19926;-92
2023/06/09 04:30:03;;;;;;;;;;;;;;;;;;5085002;28;19924;-92
2023/06/09 04:32:33;;;;;;;;;;;;;;;;;;5072191;28;19929;-91
2023/06/09 04:35:02;;;;;;;;;;;;;;;;;;5103668;28;20394;-92
2023/06/09 04:37:30;;;;;;;;;;;;;;;;;;5083813;28;19924;-91
2023/06/09 04:40:04;;;;;;;;;;;;;;;;;;5081849;28;19928;-93
2023/06/09 04:42:34;;;;;;;;;;;;;;;;;;5074294;28;19924;-91
2023/06/09 04:45:03;;;;;;;;;;;;;;;;;;5106348;27;19933;-92
2023/06/09 04:47:32;;;;;;;;;;;;;;;;;;5093369;28;19928;-92
2023/06/09 04:49:59;;;;;;;;;;;;;;;;;;5091266;28;19932;-92
2023/06/09 04:52:27;;;;;;;;;;;;;;;;;;5092517;28;19925;-92
2023/06/09 04:54:57;;;;;;;;;;;;;;;;;;5074858;28;19940;-92
2023/06/09 04:57:29;;;;;;;;;;;;;;;;;;5089098;28;20411;-92
2023/06/09 05:00:13;;;;;;;;;;;;;;;;;;5076254;28;19931;-91
2023/06/09 05:02:42;;;;;;;;;;;;;;;;;;5106435;27;19929;-91
2023/06/09 05:05:12;;;;;;;;;;;;;;;;;;5082285;28;19933;-92
2023/06/09 05:07:40;;;;;;;;;;;;;;;;;;5054711;28;19935;-91
2023/06/09 05:10:08;;;;;;;;;;;;;;;;;;5074202;28;19939;-91
2023/06/09 05:12:39;;;;;;;;;;;;;;;;;;5089933;28;19932;-92
2023/06/09 05:15:07;;;;;;;;;;;;;;;;;;5076749;28;19963;-92
2023/06/09 05:17:36;;;;;;;;;;;;;;;;;;5074949;28;19928;-92
2023/06/09 05:20:06;;;;;;;;;;;;;;;;;;5108541;27;19932;-92
2023/06/09 05:22:35;;;;;;;;;;;;;;;;;;5057758;28;19924;-92
2023/06/09 05:25:02;;;;;;;;;;;;;;;;;;5072894;28;19951;-91
2023/06/09 05:27:29;;;;;;;;;;;;;;;;;;5062661;28;20389;-91
2023/06/09 05:29:57;;;;;;;;;;;;;;;;;;5096070;28;19924;-92
2023/06/09 05:32:25;;;;;;;;;;;;;;;;;;5105013;28;20432;-92
2023/06/09 05:34:52;;;;;;;;;;;;;;;;;;5079121;28;19931;-93
2023/06/09 05:37:21;;;;;;;;;;;;;;;;;;5223992;22;19929;-80
2023/06/09 05:39:48;;;;;;;;;;;;;;;;;;5056998;28;19932;-80
2023/06/09 05:42:18;;;;;;;;;;;;;;;;;;5049064;28;19925;-80
2023/06/09 05:44:47;;;;;;;;;;;;;;;;;;5036533;28;19929;-80
2023/06/09 05:47:16;;;;;;;;;;;;;;;;;;5036279;28;19932;-80
2023/06/09 05:49:43;;;;;;;;;;;;;;;;;;5048236;28;19932;-80
2023/06/09 05:52:18;;;;;;;;;;;;;;;;;;5037754;28;19932;-80
2023/06/09 05:54:49;;;;;;;;;;;;;;;;;;5051177;28;19925;-80
2023/06/09 05:57:18;;;;;;;;;;;;;;;;;;5053919;28;20429;-81
2023/06/09 05:59:47;;;;;;;;;;;;;;;;;;5061656;28;19932;-80
2023/06/09 06:02:18;;;;;;;;;;;;;;;;;;5058064;28;20626;-81
2023/06/09 06:04:47;;;;;;;;;;;;;;;;;;5037393;28;19943;-81
2023/06/09 06:07:15;;;;;;;;;;;;;;;;;;5050078;28;19939;-81
2023/06/09 06:09:53;;;;;;;;;;;;;;;;;;5057529;28;19931;-81
2023/06/09 06:12:22;;;;;;;;;;;;;;;;;;5036755;28;19925;-81
2023/06/09 06:14:51;;;;;;;;;;;;;;;;;;5036465;28;20403;-80
2023/06/09 06:17:18;;;;;;;;;;;;;;;;;;5035937;28;19924;-80
2023/06/09 06:19:48;;;;;;;;;;;;;;;;;;5037600;28;20117;-80
2023/06/09 06:22:17;;;;;;;;;;;;;;;;;;5051937;28;19932;-80
2023/06/09 06:24:44;;;;;;;;;;;;;;;;;;5038992;28;19932;-80
2023/06/09 06:27:12;;;;;;;;;;;;;;;;;;5039329;28;20390;-80
2023/06/09 06:29:40;;;;;;;;;;;;;;;;;;5053335;28;19925;-81
2023/06/09 06:32:08;;;;;;;;;;;;;;;;;;5050533;28;19925;-81
2023/06/09 06:34:35;;;;;;;;;;;;;;;;;;5035173;28;19947;-81
2023/06/09 06:37:04;;;;;;;;;;;;;;;;;;5055695;28;19932;-81
2023/06/09 06:39:31;;;;;;;;;;;;;;;;;;5065109;28;20426;-81
2023/06/09 06:42:03;;;;;;;;;;;;;;;;;;5037209;28;20401;-81
2023/06/09 06:44:37;;;;;;;;;;;;;;;;;;5035157;28;19929;-81
2023/06/09 06:47:06;;;;;;;;;;;;;;;;;;5053801;28;19939;-81
2023/06/09 06:49:33;;;;;;;;;;;;;;;;;;5052248;28;20290;-81
2023/06/09 06:52:00;;;;;;;;;;;;;;;;;;5032999;28;19929;-81
2023/06/09 06:54:27;;;;;;;;;;;;;;;;;;5031893;28;20421;-81
2023/06/09 06:56:54;;;;;;;;;;;;;;;;;;5052170;28;19932;-81
2023/06/09 06:59:21;;;;;;;;;;;;;;;;;;5051934;28;20306;-81
2023/06/09 07:01:49;;;;;;;;;;;;;;;;;;5049144;28;19929;-81
2023/06/09 07:04:20;;;;;;;;;;;;;;;;;;5030739;28;19925;-81
2023/06/09 07:06:55;;;;;;;;;;;;;;;;;;5050982;28;19952;-81
2023/06/09 07:09:24;;;;;;;;;;;;;;;;;;5053971;28;20425;-81
2023/06/09 07:11:53;;;;;;;;;;;;;;;;;;5058662;28;19931;-81
2023/06/09 07:14:22;;;;;;;;;;;;;;;;;;5038590;28;19929;-81
2023/06/09 07:16:52;;;;;;;;;;;;;;;;;;5039215;28;19932;-82
2023/06/09 07:19:20;;;;;;;;;;;;;;;;;;5052852;28;19925;-81
2023/06/09 07:21:50;;;;;;;;;;;;;;;;;;5056034;28;19978;-81
2023/06/09 07:24:19;;;;;;;;;;;;;;;;;;5041678;28;19925;-81
2023/06/09 07:26:48;;;;;;;;;;;;;;;;;;5057351;28;19925;-81
2023/06/09 07:29:15;;;;;;;;;;;;;;;;;;5054142;28;19929;-81
2023/06/09 07:31:45;;;;;;;;;;;;;;;;;;5034346;28;19925;-79
2023/06/09 07:34:14;;;;;;;;;;;;;;;;;;5052863;28;19933;-81
2023/06/09 07:36:42;;;;;;;;;;;;;;;;;;5046988;28;19936;-81
2023/06/09 07:39:12;;;;;;;;;;;;;;;;;;5059832;28;19925;-81
2023/06/09 07:41:39;;;;;;;;;;;;;;;;;;5048451;28;19925;-81
2023/06/09 07:44:09;;;;;;;;;;;;;;;;;;5057341;28;19925;-81
2023/06/09 07:46:38;;;;;;;;;;;;;;;;;;5052678;28;19925;-81
2023/06/09 07:49:13;;;;;;;;;;;;;;;;;;5060244;28;20398;-81
2023/06/09 07:51:49;;;;;;;;;;;;;;;;;;5059152;28;19925;-81
2023/06/09 07:54:19;;;;;;;;;;;;;;;;;;5062425;28;20162;-81
2023/06/09 07:56:50;;;;;;;;;;;;;;;;;;5063317;28;20291;-81
2023/06/09 07:59:18;;;;;;;;;;;;;;;;;;5059411;28;19924;-81
2023/06/09 08:01:47;;;;;;;;;;;;;;;;;;5048423;28;19924;-81
2023/06/09 08:04:18;;;;;;;;;;;;;;;;;;5045618;28;19925;-81
2023/06/09 08:06:47;;;;;;;;;;;;;;;;;;5041544;28;20147;-81
2023/06/09 08:09:14;;;;;;;;;;;;;;;;;;5066132;28;19925;-81
2023/06/09 08:11:44;;;;;;;;;;;;;;;;;;5070292;28;19925;-81
2023/06/09 08:14:11;;;;;;;;;;;;;;;;;;5045719;28;19947;-81
2023/06/09 08:16:45;;;;;;;;;;;;;;;;;;5055571;28;19924;-81
2023/06/09 08:19:12;;;;;;;;;;;;;;;;;;5069460;28;19936;-81
2023/06/09 08:21:43;;;;;;;;;;;;;;;;;;5042993;28;20390;-81
2023/06/09 08:24:12;;;;;;;;;;;;;;;;;;5062697;28;19929;-81
2023/06/09 08:26:43;;;;;;;;;;;;;;;;;;5046953;28;20007;-81
2023/06/09 08:29:11;;;;;;;;;;;;;;;;;;5043424;28;20409;-81
2023/06/09 08:31:39;;;;;;;;;;;;;;;;;;5046548;28;19931;-81
2023/06/09 08:34:08;;;;;;;;;;;;;;;;;;5059145;28;19925;-81
2023/06/09 08:36:38;;;;;;;;;;;;;;;;;;5060376;28;20290;-81
2023/06/09 08:39:07;;;;;;;;;;;;;;;;;;5037661;28;19929;-80
2023/06/09 08:41:39;;;;;;;;;;;;;;;;;;5041437;28;19929;-80
2023/06/09 08:44:06;;;;;;;;;;;;;;;;;;5046397;28;20414;-80
2023/06/09 08:46:36;;;;;;;;;;;;;;;;;;5041721;28;19929;-80
2023/06/09 08:49:03;;;;;;;;;;;;;;;;;;5037201;28;19933;-80
2023/06/09 08:51:33;;;;;;;;;;;;;;;;;;5040856;28;19932;-80
2023/06/09 08:54:02;;;;;;;;;;;;;;;;;;5059884;28;19924;-80
2023/06/09 08:56:31;;;;;;;;;;;;;;;;;;5062354;28;20411;-80
2023/06/09 08:59:01;;;;;;;;;;;;;;;;;;5057115;28;19929;-80
2023/06/09 09:01:31;;;;;;;;;;;;;;;;;;5042684;28;20195;-80
2023/06/09 09:03:58;;;;;;;;;;;;;;;;;;5056505;28;19935;-80
2023/06/09 09:06:26;;;;;;;;;;;;;;;;;;5059000;28;19935;-80
2023/06/09 09:08:53;;;;;;;;;;;;;;;;;;5042574;28;19932;-80
2023/06/09 09:11:20;;;;;;;;;;;;;;;;;;5057966;28;19925;-80
2023/06/09 09:13:48;;;;;;;;;;;;;;;;;;5035409;28;19940;-80
2023/06/09 09:16:17;;;;;;;;;;;;;;;;;;5064613;28;19929;-80
2023/06/09 09:18:44;;;;;;;;;;;;;;;;;;5039705;28;19925;-80
2023/06/09 09:21:20;;;;;;;;;;;;;;;;;;5035166;28;19925;-80
2023/06/09 09:23:48;;;;;;;;;;;;;;;;;;5039048;28;19939;-81
2023/06/09 09:26:16;;;;;;;;;;;;;;;;;;5040162;28;19928;-81
2023/06/09 09:28:43;;;;;;;;;;;;;;;;;;5047264;28;19932;-81
2023/06/09 09:31:13;;;;;;;;;;;;;;;;;;5040170;28;19929;-80
2023/06/09 09:33:47;;;;;;;;;;;;;;;;;;5039066;28;19928;-81
2023/06/09 09:36:14;;;;;;;;;;;;;;;;;;5048326;28;19924;-80
2023/06/09 09:38:43;;;;;;;;;;;;;;;;;;5039577;28;19925;-80
2023/06/09 09:41:13;;;;;;;;;;;;;;;;;;5032568;28;19929;-80
2023/06/09 09:43:42;;;;;;;;;;;;;;;;;;5053682;28;19925;-80
2023/06/09 09:46:11;;;;;;;;;;;;;;;;;;5055683;28;19925;-80
2023/06/09 09:48:42;;;;;;;;;;;;;;;;;;5057149;28;20315;-81
2023/06/09 09:51:12;;;;;;;;;;;;;;;;;;5054881;28;19924;-80
2023/06/09 09:53:45;;;;;;;;;;;;;;;;;;5056640;28;19925;-80
2023/06/09 09:56:15;;;;;;;;;;;;;;;;;;5055689;28;19924;-80
2023/06/09 09:58:52;;;;;;;;;;;;;;;;;;5047054;28;19924;-80
2023/06/09 10:01:19;;;;;;;;;;;;;;;;;;5041239;28;19948;-80
2023/06/09 10:03:53;;;;;;;;;;;;;;;;;;5060010;28;19925;-80
2023/06/09 10:06:24;;;;;;;;;;;;;;;;;;5046454;28;19925;-80
2023/06/09 10:08:57;;;;;;;;;;;;;;;;;;5055279;28;19925;-80
2023/06/09 10:11:26;;;;;;;;;;;;;;;;;;5039832;28;19925;-80
2023/06/09 10:13:53;;;;;;;;;;;;;;;;;;5040515;28;19925;-80
2023/06/09 10:16:20;;;;;;;;;;;;;;;;;;5036872;28;19935;-80
2023/06/09 10:18:47;;;;;;;;;;;;;;;;;;5037853;28;19932;-80
2023/06/09 10:21:17;;;;;;;;;;;;;;;;;;5039331;28;19931;-80
2023/06/09 10:23:46;;;;;;;;;;;;;;;;;;5033005;28;19933;-80
2023/06/09 10:26:16;;;;;;;;;;;;;;;;;;5038230;28;19929;-80
2023/06/09 10:28:43;;;;;;;;;;;;;;;;;;5065164;28;20175;-80
2023/06/09 10:31:12;;;;;;;;;;;;;;;;;;5043865;28;19940;-80
2023/06/09 10:33:41;;;;;;;;;;;;;;;;;;5041591;28;20307;-80
2023/06/09 10:36:12;;;;;;;;;;;;;;;;;;5056366;28;19929;-80
2023/06/09 10:38:47;;;;;;;;;;;;;;;;;;5041759;28;19924;-80
2023/06/09 10:41:18;;;;;;;;;;;;;;;;;;5055823;28;20417;-80
2023/06/09 10:44:11;;;;;;;;;;;;;;;;;;5031414;28;20283;-80
2023/06/09 10:46:40;;;;;;;;;;;;;;;;;;5035765;28;20290;-80
2023/06/09 10:49:17;;;;;;;;;;;;;;;;;;5041145;28;19925;-80
2023/06/09 10:51:47;;;;;;;;;;;;;;;;;;5033205;28;20192;-80
2023/06/09 10:54:19;;;;;;;;;;;;;;;;;;5055133;28;19931;-80
2023/06/09 10:56:52;;;;;;;;;;;;;;;;;;5026635;28;20414;-80
2023/06/09 10:59:40;;;;;;;;;;;;;;;;;;5030225;28;19925;-80
2023/06/09 11:02:23;;;;;;;;;;;;;;;;;;5039145;28;19924;-80
2023/06/09 11:04:52;;;;;;;;;;;;;;;;;;5060192;28;19928;-81
2023/06/09 11:07:24;;;;;;;;;;;;;;;;;;5058989;28;20127;-80
2023/06/09 11:10:11;;;;;;;;;;;;;;;;;;5033542;28;20302;-80
2023/06/09 11:12:45;;;;;;;;;;;;;;;;;;5037041;28;19929;-80
2023/06/09 11:15:15;;;;;;;;;;;;;;;;;;5039917;28;19925;-80
2023/06/09 11:17:43;;;;;;;;;;;;;;;;;;5039047;28;19932;-80
2023/06/09 11:20:14;;;;;;;;;;;;;;;;;;5052670;28;19933;-80
2023/06/09 11:22:59;;;;;;;;;;;;;;;;;;5058131;28;19932;-80
2023/06/09 11:25:40;;;;;;;;;;;;;;;;;;5070309;28;19925;-80
2023/06/09 11:28:23;;;;;;;;;;;;;;;;;;5046996;28;19929;-80
2023/06/09 11:31:00;;;;;;;;;;;;;;;;;;5047709;28;19924;-80
2023/06/09 11:33:46;;;;;;;;;;;;;;;;;;5055350;28;19932;-80
2023/06/09 11:36:19;;;;;;;;;;;;;;;;;;5058734;28;19932;-80
2023/06/09 11:38:47;;;;;;;;;;;;;;;;;;5054309;28;19924;-80
2023/06/09 11:41:14;;;;;;;;;;;;;;;;;;5037802;28;19936;-80
2023/06/09 11:43:52;;;;;;;;;;;;;;;;;;5055894;28;19925;-80
2023/06/09 11:46:19;;;;;;;;;;;;;;;;;;5052384;28;19936;-80
2023/06/09 11:48:58;;;;;;;;;;;;;;;;;;5058070;28;19924;-80
2023/06/09 11:51:25;;;;;;;;;;;;;;;;;;5048072;28;19932;-79
2023/06/09 11:53:57;;;;;;;;;;;;;;;;;;5055829;28;19924;-80
2023/06/09 11:56:25;;;;;;;;;;;;;;;;;;5035934;28;19925;-80
2023/06/09 11:58:56;;;;;;;;;;;;;;;;;;5059893;28;19925;-80
2023/06/09 12:01:31;;;;;;;;;;;;;;;;;;5033033;28;20338;-80
2023/06/09 12:03:58;;;;;;;;;;;;;;;;;;5039719;28;19924;-80
2023/06/09 12:06:27;;;;;;;;;;;;;;;;;;5032890;28;19929;-80
2023/06/09 12:09:11;;;;;;;;;;;;;;;;;;5064526;28;20402;-80
2023/06/09 12:11:49;;;;;;;;;;;;;;;;;;5059911;28;19928;-80
2023/06/09 12:14:22;;;;;;;;;;;;;;;;;;5052380;28;20406;-80
2023/06/09 12:16:51;;;;;;;;;;;;;;;;;;5046153;28;19931;-80
2023/06/09 12:19:20;;;;;;;;;;;;;;;;;;5067189;28;19933;-81
2023/06/09 12:21:48;;;;;;;;;;;;;;;;;;5058422;28;19925;-80
2023/06/09 12:24:17;;;;;;;;;;;;;;;;;;5040645;28;20414;-81
2023/06/09 12:26:49;;;;;;;;;;;;;;;;;;5058059;28;19931;-81
2023/06/09 12:29:16;;;;;;;;;;;;;;;;;;5058917;28;19925;-81
2023/06/09 12:31:49;;;;;;;;;;;;;;;;;;5061211;28;19931;-80
2023/06/09 12:34:24;;;;;;;;;;;;;;;;;;5061341;28;19933;-80
2023/06/09 12:36:51;;;;;;;;;;;;;;;;;;5045285;28;20294;-80
2023/06/09 12:39:23;;;;;;;;;;;;;;;;;;5059279;28;20402;-80
2023/06/09 12:41:50;;;;;;;;;;;;;;;;;;5044324;28;19961;-80
2023/06/09 12:44:20;;;;;;;;;;;;;;;;;;5057922;28;19936;-80
2023/06/09 12:46:54;;;;;;;;;;;;;;;;;;5036437;28;20319;-80
2023/06/09 12:49:27;;;;;;;;;;;;;;;;;;5056954;28;19924;-80
2023/06/09 12:51:56;;;;;;;;;;;;;;;;;;5055872;28;19925;-80
2023/06/09 12:54:23;;;;;;;;;;;;;;;;;;5036318;28;19925;-80
2023/06/09 12:56:50;;;;;;;;;;;;;;;;;;5032917;28;20318;-81
2023/06/09 12:59:17;;;;;;;;;;;;;;;;;;5039620;28;19925;-81
2023/06/09 13:01:47;;;;;;;;;;;;;;;;;;5027060;28;20419;-81
2023/06/09 13:04:18;;;;;;;;;;;;;;;;;;5049873;28;20010;-81
2023/06/09 13:06:47;;;;;;;;;;;;;;;;;;5038385;28;19943;-81
2023/06/09 13:09:16;;;;;;;;;;;;;;;;;;5055831;28;20395;-81
2023/06/09 13:11:44;;;;;;;;;;;;;;;;;;5041098;28;19925;-81
2023/06/09 13:14:13;;;;;;;;;;;;;;;;;;5063948;28;19932;-81
2023/06/09 13:16:40;;;;;;;;;;;;;;;;;;5057982;28;19982;-81
2023/06/09 13:19:07;;;;;;;;;;;;;;;;;;5046569;28;19948;-81
2023/06/09 13:21:36;;;;;;;;;;;;;;;;;;5032001;28;19925;-81
2023/06/09 13:24:08;;;;;;;;;;;;;;;;;;5047704;28;19929;-81
2023/06/09 13:26:37;;;;;;;;;;;;;;;;;;5036584;28;20314;-80
2023/06/09 13:29:05;;;;;;;;;;;;;;;;;;5054736;28;19925;-81
2023/06/09 13:31:32;;;;;;;;;;;;;;;;;;5031580;28;19933;-80
2023/06/09 13:33:59;;;;;;;;;;;;;;;;;;5053948;28;20307;-80
2023/06/09 13:36:29;;;;;;;;;;;;;;;;;;5052030;28;20643;-81
2023/06/09 13:38:57;;;;;;;;;;;;;;;;;;5050034;28;19929;-81
2023/06/09 13:41:30;;;;;;;;;;;;;;;;;;5040470;28;20515;-81
2023/06/09 13:47:38;;;;;;;;;;;;;;;;;;5051840;28;19921;-81
2023/06/09 13:50:09;;;;;;;;;;;;;;;;;;5059217;28;19936;-81
2023/06/09 13:52:37;;;;;;;;;;;;;;;;;;5039398;28;19932;-81
2023/06/09 13:55:06;;;;;;;;;;;;;;;;;;5057767;28;19932;-81
2023/06/09 13:57:34;;;;;;;;;;;;;;;;;;5044043;28;19932;-81
2023/06/09 14:00:02;;;;;;;;;;;;;;;;;;5042919;28;19933;-81
2023/06/09 14:02:31;;;;;;;;;;;;;;;;;;5058545;28;19932;-81
2023/06/09 14:04:59;;;;;;;;;;;;;;;;;;5028183;28;19925;-81
2023/06/09 14:07:31;;;;;;;;;;;;;;;;;;5059205;28;19931;-81
2023/06/09 14:10:03;;;;;;;;;;;;;;;;;;5058917;28;20613;-81
2023/06/09 14:12:33;;;;;;;;;;;;;;;;;;5061485;28;19936;-80
2023/06/09 14:15:00;;;;;;;;;;;;;;;;;;5057338;28;19925;-80
2023/06/09 14:17:27;;;;;;;;;;;;;;;;;;5056175;28;19929;-80
2023/06/09 14:19:57;;;;;;;;;;;;;;;;;;5061396;28;19925;-81
2023/06/09 14:22:24;;;;;;;;;;;;;;;;;;5045476;28;20379;-81
2023/06/09 14:24:53;;;;;;;;;;;;;;;;;;5049541;28;19932;-81
2023/06/09 14:27:23;;;;;;;;;;;;;;;;;;5056559;28;19924;-80
2023/06/09 14:29:51;;;;;;;;;;;;;;;;;;5055132;28;19925;-80
2023/06/09 14:32:18;;;;;;;;;;;;;;;;;;5034160;28;19932;-80
2023/06/09 14:34:45;;;;;;;;;;;;;;;;;;5050406;28;19925;-80
2023/06/09 14:37:12;;;;;;;;;;;;;;;;;;5044288;28;19928;-80
2023/06/09 14:39:43;;;;;;;;;;;;;;;;;;5054164;28;20414;-80
2023/06/09 14:42:12;;;;;;;;;;;;;;;;;;5053886;28;20414;-80
2023/06/09 14:44:39;;;;;;;;;;;;;;;;;;5037581;28;19928;-80
2023/06/09 14:47:08;;;;;;;;;;;;;;;;;;5054157;28;19940;-81
2023/06/09 14:49:35;;;;;;;;;;;;;;;;;;5053732;28;19955;-81
2023/06/09 14:52:02;;;;;;;;;;;;;;;;;;5040831;28;19929;-81
2023/06/09 14:54:29;;;;;;;;;;;;;;;;;;5049003;28;19931;-81
2023/06/09 14:56:56;;;;;;;;;;;;;;;;;;5032863;28;19935;-81
2023/06/09 14:59:23;;;;;;;;;;;;;;;;;;5038753;28;19936;-81
2023/06/09 15:01:50;;;;;;;;;;;;;;;;;;5040777;28;20410;-81
2023/06/09 15:04:20;;;;;;;;;;;;;;;;;;5058524;28;20375;-81
2023/06/09 15:06:47;;;;;;;;;;;;;;;;;;5037098;28;19932;-81
2023/06/09 15:09:14;;;;;;;;;;;;;;;;;;5032986;28;19932;-81
2023/06/09 15:11:41;;;;;;;;;;;;;;;;;;5052377;28;19925;-81
2023/06/09 15:14:08;;;;;;;;;;;;;;;;;;5036868;28;19925;-81
2023/06/09 15:16:38;;;;;;;;;;;;;;;;;;5053586;28;20318;-81
2023/06/09 15:19:05;;;;;;;;;;;;;;;;;;5041384;28;19928;-81
2023/06/09 15:21:33;;;;;;;;;;;;;;;;;;5047230;28;19926;-81
2023/06/09 15:24:07;;;;;;;;;;;;;;;;;;5041251;28;19925;-81
2023/06/09 15:26:38;;;;;;;;;;;;;;;;;;5031289;28;19931;-81
2023/06/09 15:29:09;;;;;;;;;;;;;;;;;;5055629;28;19925;-81
2023/06/09 15:31:36;;;;;;;;;;;;;;;;;;5043789;28;19925;-81
2023/06/09 15:34:03;;;;;;;;;;;;;;;;;;5043671;28;19946;-80
2023/06/09 15:36:35;;;;;;;;;;;;;;;;;;5035800;28;19928;-80
2023/06/09 15:39:04;;;;;;;;;;;;;;;;;;5056757;28;20391;-80
2023/06/09 15:41:34;;;;;;;;;;;;;;;;;;5054049;28;19929;-80
2023/06/09 15:44:01;;;;;;;;;;;;;;;;;;5039254;28;19988;-80
2023/06/09 15:46:30;;;;;;;;;;;;;;;;;;5059183;28;19925;-80
2023/06/09 15:48:57;;;;;;;;;;;;;;;;;;5055305;28;19928;-80
2023/06/09 15:51:24;;;;;;;;;;;;;;;;;;5055271;28;19932;-80
2023/06/09 15:53:54;;;;;;;;;;;;;;;;;;5042673;28;19932;-80
2023/06/09 15:56:22;;;;;;;;;;;;;;;;;;5040898;28;19925;-80
2023/06/09 15:58:49;;;;;;;;;;;;;;;;;;5058307;28;19925;-80
2023/06/09 16:01:18;;;;;;;;;;;;;;;;;;5045127;28;19932;-80
2023/06/09 16:03:45;;;;;;;;;;;;;;;;;;5041977;28;20460;-80
2023/06/09 16:06:12;;;;;;;;;;;;;;;;;;5054034;28;19924;-80
2023/06/09 16:08:42;;;;;;;;;;;;;;;;;;5061098;28;19931;-80
2023/06/09 16:11:10;;;;;;;;;;;;;;;;;;5034998;28;19925;-80
2023/06/09 16:13:37;;;;;;;;;;;;;;;;;;5055965;28;20488;-80
2023/06/09 16:16:05;;;;;;;;;;;;;;;;;;5039548;28;19928;-80
2023/06/09 16:18:32;;;;;;;;;;;;;;;;;;5038979;28;20411;-80
2023/06/09 16:20:59;;;;;;;;;;;;;;;;;;5045472;28;19924;-80
2023/06/09 16:23:26;;;;;;;;;;;;;;;;;;5038462;28;19940;-80
2023/06/09 16:25:55;;;;;;;;;;;;;;;;;;5058999;28;19933;-80
2023/06/09 16:28:26;;;;;;;;;;;;;;;;;;5040390;28;19928;-80
2023/06/09 16:30:55;;;;;;;;;;;;;;;;;;5058847;28;19925;-80
2023/06/09 16:33:25;;;;;;;;;;;;;;;;;;5057034;28;19929;-80
2023/06/09 16:35:54;;;;;;;;;;;;;;;;;;5041909;28;19932;-80
2023/06/09 16:38:21;;;;;;;;;;;;;;;;;;5053615;28;19925;-80
2023/06/09 16:40:51;;;;;;;;;;;;;;;;;;5038223;28;19925;-80
2023/06/09 16:43:17;;;;;;;;;;;;;;;;;;5037678;28;19929;-80
2023/06/09 16:45:48;;;;;;;;;;;;;;;;;;5051637;28;19925;-80
2023/06/09 16:48:28;;;;;;;;;;;;;;;;;;5052540;28;19924;-80
2023/06/09 16:51:00;;;;;;;;;;;;;;;;;;5033604;28;19944;-80
2023/06/09 16:53:30;;;;;;;;;;;;;;;;;;5035507;28;19928;-80
2023/06/09 16:55:59;;;;;;;;;;;;;;;;;;5053995;28;19932;-80
2023/06/09 16:58:27;;;;;;;;;;;;;;;;;;5055657;28;19928;-80
2023/06/09 17:00:56;;;;;;;;;;;;;;;;;;5035482;28;19936;-80
2023/06/09 17:03:25;;;;;;;;;;;;;;;;;;5039363;28;20306;-80
2023/06/09 17:05:52;;;;;;;;;;;;;;;;;;5054557;28;20410;-81